Time;durP1;ratioP1;P1;durP2;ratioP2;P2;SDS_P1;SDS_P2;PMS_P1;PMS_P2;Temp;Humidity;BMP_temperature;BMP_pressure;BME280_temperature;BME280_humidity;BME280_pressure;Samples;Min_cycle;Max_cycle;Signal;HPM_P1;HPM_P2
2023/08/20 00:02:08;;;;;;;5.20;4.70;;;;;;;24.19;56.44;98333.47;5031533;28;20606;-57
2023/08/20 00:04:36;;;;;;;5.35;4.72;;;;;;;24.34;56.55;98346.59;5031348;28;20174;-57
2023/08/20 00:07:02;;;;;;;5.88;5.10;;;;;;;24.45;56.49;98349.50;5028981;28;20209;-57
2023/08/20 00:09:28;;;;;;;6.13;4.18;;;;;;;24.40;56.20;98330.78;5031375;28;20205;-57
2023/08/20 00:11:53;;;;;;;5.60;4.57;;;;;;;24.34;56.30;98320.13;5031309;28;20269;-58
2023/08/20 00:14:18;;;;;;;5.20;4.45;;;;;;;24.23;56.37;98322.50;5031165;28;20778;-57
2023/08/20 00:16:46;;;;;;;4.88;4.18;;;;;;;24.35;56.41;98343.75;5048537;28;20683;-57
2023/08/20 00:19:11;;;;;;;9.07;4.80;;;;;;;24.31;56.29;98337.22;5048416;28;20537;-56
2023/08/20 00:21:42;;;;;;;5.93;5.03;;;;;;;24.40;56.38;98346.66;5048534;28;20189;-57
2023/08/20 00:24:08;;;;;;;5.88;5.32;;;;;;;24.26;56.56;98336.97;5048482;28;20185;-57
2023/08/20 00:26:33;;;;;;;5.53;4.60;;;;;;;24.34;56.32;98346.59;5048429;28;20792;-57
2023/08/20 00:28:59;;;;;;;5.72;4.72;;;;;;;24.15;56.34;98321.63;5048478;28;20212;-57
2023/08/20 00:31:24;;;;;;;5.03;4.63;;;;;;;24.33;56.46;98356.34;5048422;28;20191;-57
2023/08/20 00:33:50;;;;;;;4.95;4.43;;;;;;;24.32;56.67;98349.41;5048365;28;20275;-57
2023/08/20 00:36:15;;;;;;;4.90;4.50;;;;;;;24.28;56.27;98313.81;5048344;28;20737;-57
2023/08/20 00:38:40;;;;;;;6.03;5.43;;;;;;;24.34;56.40;98326.25;5048490;28;20192;-57
2023/08/20 00:41:06;;;;;;;5.72;4.82;;;;;;;24.21;56.60;98315.56;5048453;28;20615;-57
2023/08/20 00:43:31;;;;;;;10.93;4.80;;;;;;;24.34;56.59;98339.47;5048343;28;20181;-57
2023/08/20 00:45:59;;;;;;;5.05;4.55;;;;;;;24.26;56.98;98329.03;5048122;28;20189;-57
2023/08/20 00:48:25;;;;;;;5.07;4.60;;;;;;;24.24;57.53;98352.22;5032552;28;20714;-57
2023/08/20 00:50:50;;;;;;;4.88;4.47;;;;;;;23.92;58.55;98337.91;5028413;28;20194;-57
2023/08/20 00:53:16;;;;;;;5.03;4.55;;;;;;;23.91;58.60;98326.53;5028320;28;20181;-57
2023/08/20 00:55:44;;;;;;;5.25;4.75;;;;;;;23.77;58.96;98310.72;5028221;28;20229;-57
2023/08/20 00:58:10;;;;;;;4.85;4.47;;;;;;;23.86;58.25;98315.69;5028278;28;20196;-57
2023/08/20 01:00:36;;;;;;;5.75;5.18;;;;;;;23.83;58.33;98314.22;5028234;28;20190;-57
2023/08/20 01:03:01;;;;;;;7.60;5.28;;;;;;;23.80;58.88;98319.88;5028249;28;20664;-57
2023/08/20 01:05:32;;;;;;;5.32;4.82;;;;;;;23.70;59.75;98345.00;5028166;28;20185;-57
2023/08/20 01:08:18;;;;;;;5.40;4.80;;;;;;;23.63;60.09;98337.00;5032096;28;20287;-57
2023/08/20 01:11:06;;;;;;;5.53;4.80;;;;;;;23.49;60.08;98320.41;5032178;28;20189;-57
2023/08/20 01:13:32;;;;;;;5.65;5.05;;;;;;;23.52;60.68;98344.63;5032109;28;20178;-57
2023/08/20 01:15:57;;;;;;;5.50;4.97;;;;;;;23.30;60.91;98303.34;5031891;28;20749;-57
2023/08/20 01:18:24;;;;;;;7.55;5.07;;;;;;;23.37;61.28;98324.56;5031986;28;20180;-57
2023/08/20 01:21:00;;;;;;;5.57;4.72;;;;;;;23.16;62.02;98316.56;5031951;28;20579;-57
2023/08/20 01:23:32;;;;;;;5.97;5.45;;;;;;;23.30;62.06;98350.06;5033145;28;20621;-57
2023/08/20 01:26:35;;;;;;;6.75;4.90;;;;;;;23.06;62.51;98311.56;5031677;28;20189;-57
2023/08/20 01:29:02;;;;;;;6.43;5.25;;;;;;;23.17;62.65;98344.63;5032099;28;20226;-57
2023/08/20 01:31:28;;;;;;;6.05;4.72;;;;;;;23.16;62.58;98342.97;5031744;28;20178;-56
2023/08/20 01:33:54;;;;;;;4.72;4.38;;;;;;;22.93;63.54;98329.06;5031697;28;20303;-57
2023/08/20 01:36:19;;;;;;;5.18;4.68;;;;;;;22.92;63.62;98328.28;5031500;28;20589;-57
2023/08/20 01:38:44;;;;;;;5.80;5.30;;;;;;;22.64;64.68;98303.53;5031598;28;20182;-57
2023/08/20 01:41:10;;;;;;;5.95;4.80;;;;;;;22.58;66.11;98335.94;5031607;28;20212;-58
2023/08/20 01:43:35;;;;;;;5.10;4.63;;;;;;;22.62;65.82;98328.47;5031443;28;20668;-58
2023/08/20 01:46:01;;;;;;;5.53;5.00;;;;;;;22.46;65.52;98295.19;5031528;28;20280;-58
2023/08/20 01:48:26;;;;;;;5.70;5.20;;;;;;;22.63;65.62;98320.38;5031708;28;20535;-58
2023/08/20 01:50:52;;;;;;;5.15;4.75;;;;;;;22.73;65.24;98328.00;5031356;28;20273;-58
2023/08/20 01:53:17;;;;;;;5.72;4.82;;;;;;;22.54;65.54;98297.72;5031336;28;20280;-57
2023/08/20 01:55:42;;;;;;;7.57;5.40;;;;;;;22.59;65.82;98307.72;5031209;28;20446;-58
2023/08/20 01:58:08;;;;;;;5.35;4.90;;;;;;;22.59;65.24;98305.06;5033235;28;20288;-58
2023/08/20 02:00:33;;;;;;;5.90;5.28;;;;;;;22.55;65.78;98303.81;5033645;28;20632;-58
2023/08/20 02:02:59;;;;;;;6.93;5.78;;;;;;;22.41;66.15;98294.88;5033666;28;20182;-58
2023/08/20 02:05:25;;;;;;;5.47;4.97;;;;;;;22.47;65.78;98283.63;5033575;28;20181;-57
2023/08/20 02:07:50;;;;;;;5.03;4.63;;;;;;;22.63;65.76;98306.34;5033212;28;20213;-57
2023/08/20 02:10:15;;;;;;;7.22;5.10;;;;;;;22.60;65.76;98304.09;5033225;28;20379;-58
2023/08/20 02:12:41;;;;;;;6.47;5.50;;;;;;;22.52;65.91;98302.38;5033360;28;20178;-57
2023/08/20 02:15:08;;;;;;;5.50;5.00;;;;;;;22.76;65.21;98315.28;5033042;28;20251;-58
2023/08/20 02:17:35;;;;;;;8.32;4.93;;;;;;;22.88;64.99;98328.78;5009795;28;20699;-58
2023/08/20 02:20:01;;;;;;;5.25;4.75;;;;;;;22.71;65.31;98285.16;5010997;28;20182;-58
2023/08/20 02:22:29;;;;;;;5.72;5.10;;;;;;;22.83;64.93;98305.59;5010985;28;20191;-58
2023/08/20 02:24:54;;;;;;;5.78;4.93;;;;;;;22.69;64.66;98287.16;5010952;28;20179;-58
2023/08/20 02:27:20;;;;;;;5.60;5.13;;;;;;;22.64;65.01;98294.81;5010919;28;20283;-58
2023/08/20 02:29:45;;;;;;;7.35;5.40;;;;;;;22.74;65.20;98306.72;5010995;28;20179;-58
2023/08/20 02:32:10;;;;;;;7.65;4.88;;;;;;;22.72;65.80;98313.19;5010801;28;20186;-58
2023/08/20 02:34:36;;;;;;;5.93;5.32;;;;;;;22.50;66.82;98287.72;5011119;28;20193;-58
2023/08/20 02:37:01;;;;;;;5.50;5.10;;;;;;;22.62;66.90;98302.88;5010671;28;20227;-58
2023/08/20 02:39:27;;;;;;;6.25;5.30;;;;;;;22.70;66.43;98301.97;5010880;28;20656;-58
2023/08/20 02:41:52;;;;;;;6.47;5.25;;;;;;;22.88;65.49;98324.34;5010822;28;20209;-58
2023/08/20 02:44:17;;;;;;;6.22;5.70;;;;;;;22.94;64.95;98328.06;5010573;28;20229;-58
2023/08/20 02:46:44;;;;;;;6.22;5.60;;;;;;;22.72;65.15;98306.06;5010634;28;20194;-58
2023/08/20 02:49:10;;;;;;;6.80;5.45;;;;;;;22.90;64.96;98329.47;5027281;28;20212;-58
2023/08/20 02:51:35;;;;;;;6.32;5.72;;;;;;;22.83;64.71;98310.06;5032525;28;20186;-57
2023/08/20 02:54:01;;;;;;;5.90;5.30;;;;;;;22.92;65.05;98330.06;5032812;28;20170;-58
2023/08/20 02:56:26;;;;;;;5.80;5.28;;;;;;;22.83;65.31;98331.16;5032616;28;20202;-58
2023/08/20 02:58:51;;;;;;;6.28;5.40;;;;;;;22.70;65.37;98304.63;5032720;28;20192;-58
2023/08/20 03:01:25;;;;;;;5.65;5.15;;;;;;;22.80;65.67;98315.72;5032646;28;20182;-58
2023/08/20 03:03:51;;;;;;;5.68;5.20;;;;;;;22.68;65.95;98298.72;5032689;28;20252;-58
2023/08/20 03:06:16;;;;;;;6.15;5.57;;;;;;;22.83;65.28;98320.59;5032586;28;20206;-58
2023/08/20 03:08:41;;;;;;;5.68;5.18;;;;;;;22.88;64.88;98313.78;5029621;28;20194;-58
2023/08/20 03:11:07;;;;;;;6.10;5.53;;;;;;;22.81;64.55;98306.78;5029930;28;20190;-58
2023/08/20 03:13:33;;;;;;;6.88;5.00;;;;;;;22.83;64.51;98310.88;5029793;28;20186;-58
2023/08/20 03:15:58;;;;;;;6.32;5.65;;;;;;;22.80;64.60;98315.72;5029751;28;20213;-58
2023/08/20 03:18:23;;;;;;;5.85;5.25;;;;;;;22.74;64.92;98305.91;5029780;28;20197;-58
2023/08/20 03:20:49;;;;;;;5.47;5.00;;;;;;;22.52;65.72;98302.38;5029871;28;20192;-57
2023/08/20 03:23:14;;;;;;;7.55;4.97;;;;;;;22.78;65.79;98333.56;5029651;28;20356;-58
2023/08/20 03:25:40;;;;;;;6.72;5.38;;;;;;;22.74;66.07;98327.00;5029654;28;20192;-58
2023/08/20 03:28:05;;;;;;;5.53;5.03;;;;;;;22.62;66.05;98323.19;5029541;28;20201;-58
2023/08/20 03:30:31;;;;;;;6.35;5.70;;;;;;;22.72;66.41;98329.81;5029359;28;20537;-58
2023/08/20 03:32:56;;;;;;;7.43;5.95;;;;;;;;;;5009694;28;20182;-58
2023/08/20 03:35:22;;;;;;;7.47;6.18;;;;;;;22.82;65.37;98311.91;5009721;28;20186;-58
2023/08/20 03:37:47;;;;;;;6.05;5.55;;;;;;;22.88;65.30;98332.28;5009737;28;20205;-58
2023/08/20 03:40:13;;;;;;;6.78;6.07;;;;;;;22.63;65.30;98293.16;5023913;28;20613;-56
2023/08/20 03:42:38;;;;;;;6.15;5.55;;;;;;;22.72;64.94;98297.34;4989750;28;20183;-57
2023/08/20 03:45:04;;;;;;;6.00;5.40;;;;;;;22.82;65.03;98311.06;4989985;28;20719;-57
2023/08/20 03:47:30;;;;;;;5.90;5.40;;;;;;;22.86;64.67;98314.97;4989908;28;20214;-56
2023/08/20 03:49:55;;;;;;;7.07;5.40;;;;;;;22.96;64.56;98339.28;4989962;28;20277;-57
2023/08/20 03:52:20;;;;;;;8.82;5.22;;;;;;;22.84;65.19;98332.84;4989806;28;20188;-57
2023/08/20 03:54:46;;;;;;;5.70;5.00;;;;;;;22.60;65.42;98304.09;4989779;28;20538;-56
2023/08/20 03:57:11;;;;;;;6.68;5.22;;;;;;;22.71;65.79;98327.34;4989627;28;20219;-56
2023/08/20 03:59:37;;;;;;;5.38;4.88;;;;;;;22.73;66.20;98339.38;4989620;28;20187;-57
2023/08/20 04:02:02;;;;;;;9.13;5.40;;;;;;;22.63;66.29;98336.22;4989609;28;20654;-57
2023/08/20 04:04:28;;;;;;;5.80;5.30;;;;;;;22.62;66.14;98317.91;4989655;28;20206;-56
2023/08/20 04:06:53;;;;;;;6.25;5.30;;;;;;;22.61;65.85;98303.91;4989375;28;20534;-57
2023/08/20 04:09:19;;;;;;;11.82;4.88;;;;;;;22.65;65.64;98312.25;4989582;28;20189;-57
2023/08/20 04:11:44;;;;;;;6.20;4.80;;;;;;;22.88;65.72;98337.53;4989473;28;20182;-57
2023/08/20 04:14:10;;;;;;;6.10;4.55;;;;;;;22.84;65.14;98324.91;5019734;28;20190;-56
2023/08/20 04:16:35;;;;;;;5.68;5.18;;;;;;;22.97;65.28;98348.81;5031107;28;20578;-57
2023/08/20 04:19:00;;;;;;;7.00;4.45;;;;;;;22.83;64.80;98320.59;5031278;28;20181;-57
2023/08/20 04:21:26;;;;;;;7.90;5.72;;;;;;;;;;5030910;28;20177;-57
2023/08/20 04:23:51;;;;;;;5.57;5.13;;;;;;;22.88;65.11;98324.34;5031174;28;20662;-57
2023/08/20 04:26:17;;;;;;;5.95;5.20;;;;;;;23.10;64.46;98330.50;5031077;28;20293;-57
2023/08/20 04:28:42;;;;;;;7.28;5.03;;;;;;;23.20;64.03;98349.53;5031125;28;20283;-57
2023/08/20 04:31:07;;;;;;;7.10;5.70;;;;;;;23.10;63.93;98330.50;5031088;28;20318;-57
2023/08/20 04:33:33;;;;;;;5.78;5.25;;;;;;;22.95;63.94;98314.69;5031030;28;20671;-57
2023/08/20 04:35:58;;;;;;;7.35;5.65;;;;;;;23.22;64.03;98347.53;5030916;28;20205;-58
2023/08/20 04:38:24;;;;;;;6.05;5.50;;;;;;;23.02;63.91;98330.63;5031191;28;20315;-58
2023/08/20 04:40:49;;;;;;;6.90;4.88;;;;;;;23.11;63.94;98340.06;5030289;28;20686;-58
2023/08/20 04:43:15;;;;;;;5.68;4.93;;;;;;;23.26;63.78;98344.31;5030636;28;20174;-58
2023/08/20 04:45:41;;;;;;;5.90;5.40;;;;;;;23.07;63.90;98321.13;5030540;28;20257;-58
2023/08/20 04:48:06;;;;;;;5.07;4.60;;;;;;;23.21;64.18;98352.00;5030860;28;20228;-58
2023/08/20 04:50:32;;;;;;;6.93;5.32;;;;;;;23.23;64.10;98357.06;5030820;28;20170;-58
2023/08/20 04:52:59;;;;;;;6.68;5.20;;;;;;;23.23;63.99;98354.44;5030860;28;20278;-58
2023/08/20 04:55:27;;;;;;;6.45;5.20;;;;;;;23.27;64.06;98356.53;5030670;28;20170;-58
2023/08/20 04:57:53;;;;;;;7.30;5.18;;;;;;;23.23;63.79;98331.50;5030832;28;20275;-58
2023/08/20 05:00:19;;;;;;;5.63;5.10;;;;;;;23.34;63.27;98335.47;5030835;28;20600;-58
2023/08/20 05:02:44;;;;;;;5.88;5.38;;;;;;;23.33;63.06;98339.13;5030908;28;20180;-58
2023/08/20 05:05:11;;;;;;;6.32;5.82;;;;;;;23.35;63.82;98343.22;5030874;28;20170;-58
2023/08/20 05:07:36;;;;;;;6.82;5.60;;;;;;;23.36;63.78;98354.63;5047850;28;20267;-58
2023/08/20 05:10:02;;;;;;;5.57;5.07;;;;;;;23.08;64.32;98316.69;5048267;28;20280;-58
2023/08/20 05:12:28;;;;;;;6.10;5.60;;;;;;;23.07;64.25;98318.47;5048125;28;20304;-57
2023/08/20 05:14:53;;;;;;;5.20;4.75;;;;;;;23.20;63.73;98317.84;5048264;28;20252;-58
2023/08/20 05:17:19;;;;;;;6.07;5.43;;;;;;;23.22;63.89;98329.03;5048018;28;20220;-58
2023/08/20 05:19:45;;;;;;;5.82;5.32;;;;;;;23.34;64.01;98360.06;5048105;28;20177;-59
2023/08/20 05:22:11;;;;;;;5.97;5.38;;;;;;;23.40;63.88;98350.56;5048319;28;20682;-58
2023/08/20 05:24:37;;;;;;;5.90;5.30;;;;;;;23.56;62.68;98345.06;5048070;28;20586;-58
2023/08/20 05:27:05;;;;;;;5.75;5.25;;;;;;;23.69;62.73;98367.94;5048136;28;20193;-58
2023/08/20 05:29:31;;;;;;;5.82;5.18;;;;;;;23.67;63.08;98358.59;5047888;28;20674;-58
2023/08/20 05:31:57;;;;;;;5.22;4.70;;;;;;;23.88;62.27;98374.47;5048197;28;20177;-58
2023/08/20 05:34:22;;;;;;;6.47;5.88;;;;;;;23.92;61.83;98373.91;5048328;28;20297;-58
2023/08/20 05:36:47;;;;;;;6.13;5.47;;;;;;;23.92;61.42;98351.13;5048202;28;20804;-58
2023/08/20 05:39:13;;;;;;;6.57;4.95;;;;;;;24.08;61.27;98378.94;5034682;28;20186;-58
2023/08/20 05:41:38;;;;;;;6.13;5.53;;;;;;;24.03;61.28;98365.47;5030592;28;20614;-57
2023/08/20 05:44:04;;;;;;;6.88;5.20;;;;;;;24.05;61.58;98373.22;5030783;28;20189;-57
2023/08/20 05:46:29;;;;;;;5.63;5.20;;;;;;;23.94;61.31;98359.69;5030690;28;20668;-57
2023/08/20 05:48:54;;;;;;;5.43;4.93;;;;;;;24.10;61.02;98371.63;5030748;28;20174;-57
2023/08/20 05:51:20;;;;;;;6.72;5.28;;;;;;;24.02;61.33;98369.13;5030673;28;20265;-57
2023/08/20 05:53:45;;;;;;;11.85;5.20;;;;;;;24.04;61.63;98363.66;5034097;28;20254;-57
2023/08/20 05:56:11;;;;;;;7.53;5.28;;;;;;;24.03;61.53;98349.59;5034174;28;20687;-57
2023/08/20 05:58:36;;;;;;;5.88;4.90;;;;;;;24.01;61.26;98353.44;5034395;28;20193;-57
2023/08/20 06:01:01;;;;;;;5.53;5.03;;;;;;;24.26;61.18;98386.41;5033918;28;20182;-57
2023/08/20 06:03:27;;;;;;;6.70;6.10;;;;;;;24.10;61.31;98350.47;5033913;28;20188;-57
2023/08/20 06:05:52;;;;;;;5.50;4.72;;;;;;;24.33;60.71;98379.34;5033937;28;20339;-57
2023/08/20 06:08:17;;;;;;;5.75;5.30;;;;;;;24.27;60.72;98361.59;5034048;28;20190;-57
2023/08/20 06:10:43;;;;;;;9.07;5.18;;;;;;;24.26;61.06;98376.63;5033951;28;20184;-59
2023/08/20 06:13:09;;;;;;;5.75;4.93;;;;;;;24.37;60.36;98384.06;5033522;28;20170;-59
2023/08/20 06:15:34;;;;;;;5.47;5.05;;;;;;;24.34;60.42;98368.59;5033719;28;20210;-58
2023/08/20 06:18:00;;;;;;;5.60;5.10;;;;;;;24.34;59.88;98357.16;5033896;28;20182;-57
2023/08/20 06:20:25;;;;;;;5.53;5.10;;;;;;;24.57;60.28;98389.53;5033682;28;20182;-57
2023/08/20 06:22:51;;;;;;;6.40;5.40;;;;;;;24.70;59.71;98382.50;5033559;28;20174;-58
2023/08/20 06:25:16;;;;;;;6.47;5.22;;;;;;;24.69;59.03;98380.88;5033888;28;20178;-58
2023/08/20 06:27:42;;;;;;;8.77;5.25;;;;;;;24.79;58.67;98383.94;5033858;28;20228;-58
2023/08/20 06:30:08;;;;;;;5.75;5.10;;;;;;;24.75;58.99;98377.44;5033865;28;20695;-58
2023/08/20 06:32:35;;;;;;;6.13;5.47;;;;;;;24.87;58.72;98381.16;5033699;28;20180;-58
2023/08/20 06:35:00;;;;;;;5.95;4.38;;;;;;;24.99;58.20;98387.53;5033697;28;20185;-58
2023/08/20 06:37:25;;;;;;;7.18;4.88;;;;;;;24.97;57.54;98371.00;5033593;28;20201;-58
2023/08/20 06:39:51;;;;;;;5.60;5.10;;;;;;;25.08;58.07;98374.97;5033640;28;20185;-58
2023/08/20 06:42:16;;;;;;;8.95;5.15;;;;;;;25.27;57.53;98371.59;5033892;28;20246;-58
2023/08/20 06:44:41;;;;;;;10.75;5.10;;;;;;;25.39;56.96;98375.31;5033588;28;20213;-58
2023/08/20 06:47:07;;;;;;;6.20;4.88;;;;;;;25.37;56.16;98362.25;5033505;28;20240;-59
2023/08/20 06:49:32;;;;;;;8.32;5.18;;;;;;;25.65;55.89;98407.19;5033430;28;20174;-58
2023/08/20 06:51:57;;;;;;;4.97;4.60;;;;;;;25.68;55.82;98394.38;5033431;28;20217;-58
2023/08/20 06:54:23;;;;;;;6.47;5.68;;;;;;;25.71;55.37;98375.38;5033348;28;20178;-58
2023/08/20 06:56:48;;;;;;;5.15;4.65;;;;;;;25.75;55.00;98376.63;5030582;28;20225;-58
2023/08/20 06:59:14;;;;;;;5.25;4.63;;;;;;;25.80;54.72;98379.50;5030783;28;20223;-58
2023/08/20 07:01:39;;;;;;;5.78;4.93;;;;;;;25.88;54.80;98381.94;5030697;28;20182;-58
2023/08/20 07:04:05;;;;;;;5.72;5.15;;;;;;;26.05;55.18;98399.13;5030340;28;20186;-59
2023/08/20 07:06:30;;;;;;;7.13;5.30;;;;;;;26.10;54.87;98412.63;5030594;28;20270;-59
2023/08/20 07:08:56;;;;;;;5.50;5.00;;;;;;;26.09;55.21;98384.47;5030472;28;20585;-57
2023/08/20 07:11:22;;;;;;;8.40;5.35;;;;;;;26.25;54.55;98405.25;5030516;28;20711;-60
2023/08/20 07:13:47;;;;;;;6.28;5.32;;;;;;;26.05;54.72;98364.66;5030565;28;20188;-58
2023/08/20 07:16:12;;;;;;;5.82;5.25;;;;;;;26.39;54.82;98385.69;5030420;28;20217;-57
2023/08/20 07:18:39;;;;;;;5.38;4.50;;;;;;;26.48;53.80;98378.31;5030386;28;20217;-57
2023/08/20 07:21:04;;;;;;;5.75;5.22;;;;;;;26.73;53.36;98382.81;5030385;28;20665;-57
2023/08/20 07:23:30;;;;;;;5.72;5.15;;;;;;;26.85;52.58;98378.50;5030396;28;20189;-57
2023/08/20 07:26:09;;;;;;;7.45;4.70;;;;;;;27.02;51.39;98382.31;5030300;28;20297;-57
2023/08/20 07:31:19;;;;;;;5.10;4.70;;;;;;;27.37;51.74;98382.81;5030560;28;20251;-58
2023/08/20 07:33:48;;;;;;;5.95;4.78;;;;;;;27.52;51.31;98400.13;5030730;28;20226;-57
2023/08/20 07:36:15;;;;;;;7.38;5.55;;;;;;;27.63;50.35;98401.31;5032425;28;20202;-58
2023/08/20 07:38:43;;;;;;;6.70;5.35;;;;;;;27.80;50.33;98403.28;5032424;28;20178;-58
2023/08/20 07:41:11;;;;;;;9.55;6.30;;;;;;;27.95;49.86;98408.31;5032422;28;20269;-58
2023/08/20 07:43:38;;;;;;;7.10;5.65;;;;;;;28.05;49.75;98403.34;5032219;28;20192;-57
2023/08/20 07:46:04;;;;;;;11.93;6.50;;;;;;;28.04;49.58;98377.75;5031960;28;20518;-57
2023/08/20 07:48:29;;;;;;;8.70;6.18;;;;;;;28.06;48.89;98400.47;5032045;28;20200;-58
2023/08/20 07:50:54;;;;;;;6.95;6.25;;;;;;;28.17;49.28;98399.75;5032241;28;20704;-58
2023/08/20 07:53:20;;;;;;;8.73;6.20;;;;;;;28.35;49.13;98397.16;5032148;28;20261;-58
2023/08/20 07:55:45;;;;;;;10.55;6.38;;;;;;;28.50;48.75;98403.00;5032140;28;20216;-57
2023/08/20 07:58:12;;;;;;;13.52;6.47;;;;;;;28.51;47.61;98385.97;5031804;28;20265;-57
2023/08/20 08:00:37;;;;;;;11.80;6.55;;;;;;;28.70;48.30;98403.63;5032268;28;20249;-57
2023/08/20 08:03:03;;;;;;;9.98;6.75;;;;;;;28.62;47.36;98377.28;5032038;28;20182;-57
2023/08/20 08:05:28;;;;;;;7.70;6.30;;;;;;;28.82;46.62;98390.41;5032238;28;20577;-57
2023/08/20 08:07:54;;;;;;;10.00;6.55;;;;;;;29.00;46.74;98407.25;5031825;28;20230;-57
2023/08/20 08:10:19;;;;;;;10.38;6.30;;;;;;;28.95;46.27;98388.44;5031873;28;20284;-57
2023/08/20 08:12:45;;;;;;;11.13;6.15;;;;;;;29.13;46.03;98409.75;5032097;28;20174;-57
2023/08/20 08:15:12;;;;;;;7.63;5.75;;;;;;;29.14;45.54;98400.72;5031262;28;20176;-57
2023/08/20 08:17:37;;;;;;;15.60;6.75;;;;;;;29.32;44.72;98410.56;5031178;28;20592;-58
2023/08/20 08:20:03;;;;;;;13.43;7.25;;;;;;;29.17;45.41;98392.28;5032085;28;20180;-58
2023/08/20 08:22:30;;;;;;;11.68;6.28;;;;;;;29.29;45.48;98387.84;5031984;28;20177;-58
2023/08/20 08:24:55;;;;;;;13.93;6.75;;;;;;;29.40;45.23;98407.59;5031692;28;20170;-58
2023/08/20 08:27:20;;;;;;;14.10;6.40;;;;;;;29.28;44.30;98377.41;5031678;28;20192;-58
2023/08/20 08:29:46;;;;;;;9.63;6.07;;;;;;;29.51;44.28;98409.50;5031655;28;20648;-58
2023/08/20 08:32:11;;;;;;;13.70;6.03;;;;;;;29.48;43.41;98394.78;5031569;28;20201;-58
2023/08/20 08:34:37;;;;;;;10.52;6.07;;;;;;;29.55;43.58;98402.72;5031816;28;20178;-58
2023/08/20 08:37:02;;;;;;;8.35;5.85;;;;;;;29.50;43.82;98381.22;5031211;28;20588;-58
2023/08/20 08:39:28;;;;;;;8.43;5.15;;;;;;;29.64;42.76;98407.53;5031533;28;20500;-58
2023/08/20 08:42:00;;;;;;;7.50;5.55;;;;;;;29.65;42.85;98397.66;5031466;28;20182;-58
2023/08/20 08:44:27;;;;;;;5.60;5.10;;;;;;;29.41;42.54;98367.38;5031700;28;20176;-58
2023/08/20 08:46:53;;;;;;;6.95;5.00;;;;;;;29.50;42.55;98374.00;5031341;28;20189;-58
2023/08/20 08:49:19;;;;;;;10.27;5.57;;;;;;;29.68;42.26;98399.88;5031331;28;20166;-58
2023/08/20 08:51:45;;;;;;;9.30;5.03;;;;;;;29.74;41.71;98402.44;5031365;28;20178;-58
2023/08/20 08:54:13;;;;;;;7.95;5.22;;;;;;;29.78;41.81;98394.81;5031360;28;20198;-58
2023/08/20 08:56:39;;;;;;;7.47;5.10;;;;;;;29.94;41.12;98415.50;5031320;28;20209;-58
2023/08/20 08:59:05;;;;;;;6.47;5.07;;;;;;;29.64;41.68;98378.19;5031341;28;20186;-58
2023/08/20 09:01:30;;;;;;;6.13;4.90;;;;;;;29.88;41.63;98392.41;5031024;28;20182;-58
2023/08/20 09:03:56;;;;;;;6.53;5.03;;;;;;;29.87;40.59;98372.91;5031364;28;20184;-58
2023/08/20 09:06:22;;;;;;;8.38;5.32;;;;;;;29.96;41.12;98382.22;5031301;28;20220;-58
2023/08/20 09:08:47;;;;;;;6.38;5.32;;;;;;;30.09;41.44;98406.06;5031722;28;20276;-58
2023/08/20 09:11:12;;;;;;;5.82;4.63;;;;;;;29.97;40.88;98373.16;5031240;28;20174;-57
2023/08/20 09:13:40;;;;;;;5.57;5.03;;;;;;;30.19;40.51;98392.19;5031186;28;20174;-57
2023/08/20 09:16:07;;;;;;;7.10;4.78;;;;;;;30.29;40.37;98395.91;5031117;28;20699;-57
2023/08/20 09:18:38;;;;;;;6.10;5.45;;;;;;;30.33;39.61;98398.91;5030869;28;20170;-57
2023/08/20 09:21:07;;;;;;;9.23;5.00;;;;;;;30.21;39.53;98364.16;5031133;28;20236;-57
2023/08/20 09:23:32;;;;;;;5.60;4.50;;;;;;;30.55;38.74;98403.44;5031041;28;20174;-57
2023/08/20 09:26:01;;;;;;;4.90;4.50;;;;;;;30.55;38.13;98398.09;5030723;28;20174;-57
2023/08/20 09:28:27;;;;;;;9.80;4.72;;;;;;;30.39;38.14;98371.28;5034176;28;20204;-57
2023/08/20 09:31:02;;;;;;;6.65;4.78;;;;;;;30.37;38.56;98363.50;5034904;28;20170;-57
2023/08/20 09:33:28;;;;;;;6.20;4.60;;;;;;;30.40;38.77;98362.22;5034839;28;20560;-58
2023/08/20 09:35:54;;;;;;;4.68;4.30;;;;;;;30.62;38.30;98382.81;5034744;28;20213;-57
2023/08/20 09:38:21;;;;;;;9.50;4.70;;;;;;;30.56;38.00;98362.38;5034721;28;20178;-57
2023/08/20 09:40:49;;;;;;;5.25;4.40;;;;;;;30.75;37.51;98371.91;5034633;28;20192;-58
2023/08/20 09:43:16;;;;;;;5.40;4.45;;;;;;;30.69;37.55;98356.81;5034503;28;20170;-58
2023/08/20 09:45:43;;;;;;;5.00;4.53;;;;;;;30.93;37.43;98385.13;5034524;28;20268;-58
2023/08/20 09:48:11;;;;;;;6.25;4.70;;;;;;;30.74;37.10;98372.13;5034475;28;20306;-58
2023/08/20 09:50:37;;;;;;;5.90;4.25;;;;;;;30.72;37.79;98353.66;5034752;28;20705;-58
2023/08/20 09:53:15;;;;;;;5.93;4.38;;;;;;;30.93;36.97;98362.91;5034406;28;20208;-58
2023/08/20 09:55:43;;;;;;;4.70;4.05;;;;;;;30.96;37.26;98357.13;5034320;28;20549;-58
2023/08/20 09:58:10;;;;;;;5.40;4.18;;;;;;;31.13;37.54;98363.34;5034312;28;20551;-58
2023/08/20 10:00:36;;;;;;;5.35;4.50;;;;;;;31.16;37.53;98368.22;5034307;28;20383;-58
2023/08/20 10:03:02;;;;;;;6.45;4.22;;;;;;;31.25;36.81;98362.28;5034317;28;20288;-58
2023/08/20 10:05:28;;;;;;;4.13;3.78;;;;;;;31.33;36.50;98351.22;5034243;28;20543;-58
2023/08/20 10:07:55;;;;;;;6.65;4.30;;;;;;;31.53;37.12;98378.34;5034261;28;20193;-58
2023/08/20 10:10:21;;;;;;;4.60;4.20;;;;;;;31.63;36.84;98375.06;5033853;28;20220;-58
2023/08/20 10:12:48;;;;;;;5.35;4.25;;;;;;;31.60;35.92;98371.00;5034221;28;20263;-58
2023/08/20 10:15:14;;;;;;;5.25;3.58;;;;;;;31.48;36.15;98351.50;5033744;28;20178;-57
2023/08/20 10:17:42;;;;;;;6.55;4.20;;;;;;;31.36;36.84;98350.75;5033975;28;20296;-58
2023/08/20 10:20:10;;;;;;;5.00;4.47;;;;;;;31.26;36.98;98337.19;5033957;28;20174;-58
2023/08/20 10:22:41;;;;;;;7.63;4.88;;;;;;;31.45;37.23;98346.66;5034008;28;20166;-58
2023/08/20 10:25:11;;;;;;;13.38;4.72;;;;;;;31.71;37.23;98362.09;5033805;28;20192;-57
2023/08/20 10:27:39;;;;;;;5.50;4.30;;;;;;;31.85;36.48;98346.59;5033686;28;20240;-57
2023/08/20 10:30:16;;;;;;;5.10;4.60;;;;;;;32.06;35.98;98348.56;5033745;28;20252;-57
2023/08/20 10:32:49;;;;;;;6.72;4.60;;;;;;;32.28;35.42;98352.16;5033482;28;20174;-57
2023/08/20 10:35:17;;;;;;;6.80;4.43;;;;;;;32.31;35.71;98322.22;5033380;28;20654;-57
2023/08/20 10:38:00;;;;;;;5.97;4.40;;;;;;;32.59;35.40;98352.34;5033458;28;20198;-57
2023/08/20 10:40:55;;;;;;;6.70;4.40;;;;;;;32.49;34.92;98360.28;5032949;28;20178;-58
2023/08/20 10:43:31;;;;;;;5.10;4.25;;;;;;;32.37;35.14;98308.66;5033518;28;20197;-58
2023/08/20 10:46:18;;;;;;;4.47;4.10;;;;;;;32.76;34.81;98355.84;5033476;28;20178;-58
2023/08/20 10:48:56;;;;;;;5.18;4.47;;;;;;;32.69;34.35;98317.66;5033569;28;20177;-58
2023/08/20 10:51:36;;;;;;;4.38;4.07;;;;;;;32.66;33.75;98328.91;5033270;28;20216;-58
2023/08/20 10:54:04;;;;;;;6.40;4.45;;;;;;;33.05;33.91;98343.91;5033430;28;20296;-58
2023/08/20 10:56:45;;;;;;;4.93;4.53;;;;;;;33.05;33.72;98340.44;5033203;28;20205;-58
2023/08/20 10:59:27;;;;;;;4.65;4.25;;;;;;;33.36;33.88;98339.75;5033074;28;20288;-58
2023/08/20 11:01:57;;;;;;;4.43;3.88;;;;;;;33.48;34.15;98327.81;5050556;28;20189;-58
2023/08/20 11:04:26;;;;;;;6.70;3.92;;;;;;;33.73;33.01;98313.81;5050692;28;20200;-58
2023/08/20 11:07:01;;;;;;;6.13;4.28;;;;;;;33.79;31.89;98332.44;5050434;28;20192;-58
2023/08/20 11:09:28;;;;;;;8.27;4.50;;;;;;;33.73;32.12;98303.06;5050539;28;20195;-58
2023/08/20 11:11:54;;;;;;;6.88;4.13;;;;;;;34.18;31.66;98339.22;5050396;28;20737;-58
2023/08/20 11:14:21;;;;;;;4.82;4.25;;;;;;;34.25;31.85;98306.75;5050362;28;20678;-58
2023/08/20 11:16:48;;;;;;;4.90;4.07;;;;;;;34.42;31.57;98308.25;5050207;28;20274;-58
2023/08/20 11:19:14;;;;;;;4.28;3.90;;;;;;;34.69;31.39;98329.66;5050282;28;20236;-58
2023/08/20 11:21:42;;;;;;;7.07;4.07;;;;;;;34.69;31.63;98308.94;5050229;28;20675;-58
2023/08/20 11:24:09;;;;;;;7.95;4.03;;;;;;;34.69;30.91;98325.06;5050214;28;20173;-58
2023/08/20 11:26:35;;;;;;;4.43;4.03;;;;;;;34.83;30.70;98309.31;5050203;28;20234;-58
2023/08/20 11:29:05;;;;;;;5.75;3.88;;;;;;;34.92;30.56;98323.88;5050096;28;20176;-58
2023/08/20 11:31:30;;;;;;;7.47;4.00;;;;;;;34.84;30.73;98300.97;5050106;28;20181;-58
2023/08/20 11:33:57;;;;;;;4.70;4.20;;;;;;;34.89;30.50;98292.94;5033110;28;20201;-58
2023/08/20 11:36:23;;;;;;;9.85;4.28;;;;;;;35.18;30.48;98322.88;5032379;28;20205;-59